Time;durP1;ratioP1;P1;durP2;ratioP2;P2;SDS_P1;SDS_P2;PMS_P1;PMS_P2;Temp;Humidity;BMP_temperature;BMP_pressure;BME280_temperature;BME280_humidity;BME280_pressure;Samples;Min_cycle;Max_cycle;Signal;HPM_P1;HPM_P2
2022/02/28 00:00:16;;;;;;;20.73;11.27;;;;;;;6.05;41.41;98722.13;5031735;28;20181;-72
2022/02/28 00:02:42;;;;;;;15.90;10.90;;;;;;;6.01;41.91;98725.00;5031739;28;20191;-72
2022/02/28 00:05:08;;;;;;;20.13;10.07;;;;;;;5.98;41.81;98721.59;5031133;28;20425;-75
2022/02/28 00:07:34;;;;;;;14.70;9.40;;;;;;;5.89;42.32;98724.72;5030593;28;21105;-74
2022/02/28 00:09:59;;;;;;;16.00;10.53;;;;;;;5.88;42.30;98717.84;5031913;28;20206;-75
2022/02/28 00:12:25;;;;;;;15.53;10.30;;;;;;;5.86;41.81;98722.28;5013638;28;20274;-75
2022/02/28 00:14:51;;;;;;;16.90;10.30;;;;;;;5.79;42.59;98719.19;5030939;28;20682;-75
2022/02/28 00:17:16;;;;;;;14.10;9.60;;;;;;;5.76;42.40;98727.16;5030535;28;20244;-75
2022/02/28 00:19:41;;;;;;;13.90;9.90;;;;;;;5.73;42.31;98721.28;5014267;28;20194;-75
2022/02/28 00:22:07;;;;;;;14.00;9.50;;;;;;;5.76;42.37;98723.72;5030938;28;20789;-75
2022/02/28 00:24:33;;;;;;;18.00;10.20;;;;;;;5.75;42.55;98719.44;5022567;28;20241;-75
2022/02/28 00:26:58;;;;;;;18.83;10.27;;;;;;;5.73;42.14;98714.34;5031455;28;20190;-75
2022/02/28 00:29:23;;;;;;;15.37;9.40;;;;;;;5.66;42.33;98719.03;5030281;28;20276;-75
2022/02/28 00:31:49;;;;;;;16.27;9.50;;;;;;;5.66;42.57;98719.03;5031168;28;20184;-75
2022/02/28 00:34:14;;;;;;;18.03;10.40;;;;;;;5.71;42.78;98725.72;5030143;28;20184;-75
2022/02/28 00:36:40;;;;;;;18.00;10.53;;;;;;;5.68;42.69;98721.53;5012639;28;20611;-76
2022/02/28 00:39:06;;;;;;;15.57;10.00;;;;;;;5.64;42.61;98720.88;5030694;28;20217;-75
2022/02/28 00:41:31;;;;;;;16.80;9.10;;;;;;;5.60;42.92;98724.56;5031186;28;20212;-76
2022/02/28 00:43:57;;;;;;;15.77;10.33;;;;;;;5.61;42.99;98715.84;5031052;28;20179;-75
2022/02/28 00:46:22;;;;;;;16.07;9.43;;;;;;;5.54;42.35;98720.53;4996781;28;20194;-76
2022/02/28 00:48:47;;;;;;;15.93;10.03;;;;;;;5.53;42.54;98720.63;5030936;28;20205;-75
2022/02/28 00:51:13;;;;;;;17.07;9.63;;;;;;;5.51;42.61;98719.88;5012832;28;20583;-76
2022/02/28 00:53:38;;;;;;;15.63;9.93;;;;;;;5.50;42.89;98724.22;5031415;28;20265;-75
2022/02/28 00:56:04;;;;;;;13.80;9.90;;;;;;;5.53;42.76;98718.03;5030869;28;20180;-75
2022/02/28 00:58:30;;;;;;;17.50;10.07;;;;;;;5.54;42.47;98714.50;5031387;28;20525;-73
2022/02/28 01:00:57;;;;;;;14.83;9.60;;;;;;;5.55;42.79;98716.16;5031112;28;20193;-75
2022/02/28 01:03:24;;;;;;;15.33;9.70;;;;;;;5.53;42.88;98711.06;5031183;28;20176;-75
2022/02/28 01:05:49;;;;;;;14.00;9.60;;;;;;;5.59;43.02;98722.06;5013653;28;20428;-75
2022/02/28 01:08:14;;;;;;;16.57;10.80;;;;;;;5.59;43.17;98712.47;5031102;28;20444;-75
2022/02/28 01:10:40;;;;;;;14.87;10.20;;;;;;;5.56;42.76;98717.84;5031300;28;20244;-75
2022/02/28 01:13:10;;;;;;;13.30;9.50;;;;;;;5.52;42.64;98714.56;5030506;28;20201;-73
2022/02/28 01:15:36;;;;;;;14.03;10.07;;;;;;;5.49;42.29;98717.34;5013302;28;20180;-73
2022/02/28 01:18:01;;;;;;;17.03;10.87;;;;;;;5.48;42.69;98722.63;5020345;28;20441;-75
2022/02/28 01:20:27;;;;;;;19.10;9.83;;;;;;;5.51;42.73;98725.06;5031054;28;20215;-73
2022/02/28 01:22:52;;;;;;;13.60;10.70;;;;;;;5.40;42.91;98717.84;5031150;28;20272;-75
2022/02/28 01:25:18;;;;;;;16.03;9.27;;;;;;;5.42;43.33;98726.41;5030713;28;20183;-74
2022/02/28 01:27:43;;;;;;;19.07;9.57;;;;;;;5.36;43.41;98717.16;5030776;28;20208;-76
2022/02/28 01:30:10;;;;;;;14.33;9.50;;;;;;;5.35;43.06;98720.69;5029906;28;20182;-76
2022/02/28 01:32:35;;;;;;;13.00;9.53;;;;;;;5.29;43.36;98713.22;5030859;28;20639;-74
2022/02/28 01:35:01;;;;;;;15.03;9.73;;;;;;;5.32;42.92;98720.03;5017090;28;20427;-75
2022/02/28 01:37:26;;;;;;;18.13;10.40;;;;;;;5.30;43.67;98711.47;5034943;28;20190;-73
2022/02/28 01:39:52;;;;;;;16.00;10.10;;;;;;;5.35;43.60;98718.09;5030943;28;20209;-74
2022/02/28 01:42:17;;;;;;;16.47;9.80;;;;;;;5.37;43.12;98713.66;5030520;28;20657;-76
2022/02/28 01:44:43;;;;;;;17.40;10.40;;;;;;;5.41;43.37;98710.88;5030425;28;20180;-74
2022/02/28 01:47:09;;;;;;;15.60;11.00;;;;;;;5.39;42.92;98713.56;5030401;28;20193;-74
2022/02/28 01:49:34;;;;;;;19.23;10.20;;;;;;;5.34;42.63;98712.97;5030214;28;20231;-74
2022/02/28 01:52:00;;;;;;;17.83;9.60;;;;;;;5.27;43.01;98711.59;5030670;28;20541;-75
2022/02/28 01:54:26;;;;;;;14.83;10.07;;;;;;;5.18;42.51;98712.94;5012235;28;20184;-74
2022/02/28 01:56:52;;;;;;;22.20;11.90;;;;;;;5.10;43.87;98702.13;5030344;28;20183;-74
2022/02/28 01:59:17;;;;;;;23.67;11.93;;;;;;;5.16;43.33;98705.22;5030302;28;20857;-74
2022/02/28 02:01:43;;;;;;;24.00;11.57;;;;;;;5.10;43.40;98699.50;5030695;28;20205;-75
2022/02/28 02:04:08;;;;;;;18.37;11.40;;;;;;;5.15;43.76;98700.13;5030273;28;20194;-76
2022/02/28 02:06:38;;;;;;;18.73;11.13;;;;;;;5.16;43.70;98699.22;5031990;28;20175;-73
2022/02/28 02:09:04;;;;;;;20.13;12.20;;;;;;;5.14;43.26;98690.66;5016559;28;20227;-73
2022/02/28 02:11:29;;;;;;;23.10;12.67;;;;;;;5.10;43.41;98694.31;5034038;28;20444;-76
2022/02/28 02:13:55;;;;;;;16.13;10.50;;;;;;;5.03;43.36;98694.66;5034536;28;20453;-75
2022/02/28 02:16:21;;;;;;;27.33;12.40;;;;;;;4.98;43.73;98693.22;5034237;28;20193;-76
2022/02/28 02:18:46;;;;;;;20.00;11.00;;;;;;;4.89;43.77;98691.94;5034494;28;20207;-74
2022/02/28 02:21:14;;;;;;;16.67;10.10;;;;;;;4.72;44.05;98696.25;5034307;28;20583;-76
2022/02/28 02:23:42;;;;;;;19.37;10.83;;;;;;;4.80;43.89;98697.59;5016909;28;20189;-75
2022/02/28 02:26:09;;;;;;;17.70;10.53;;;;;;;4.82;43.73;98699.22;5033527;28;20828;-75
2022/02/28 02:28:36;;;;;;;18.77;10.43;;;;;;;4.83;43.73;98693.09;5026186;28;20482;-76
2022/02/28 02:31:04;;;;;;;18.90;11.43;;;;;;;4.79;44.52;98695.94;5034243;28;20830;-75
2022/02/28 02:33:29;;;;;;;20.10;9.80;;;;;;;4.68;43.82;98709.47;5033644;28;20491;-75
2022/02/28 02:35:57;;;;;;;14.63;9.80;;;;;;;4.62;44.72;98700.22;5033025;28;20446;-76
2022/02/28 02:38:24;;;;;;;15.93;10.30;;;;;;;4.64;44.21;98708.78;5031822;28;20441;-76
2022/02/28 02:40:50;;;;;;;17.70;11.20;;;;;;;4.67;44.35;98711.19;5033243;28;20856;-76
2022/02/28 02:43:16;;;;;;;18.10;10.63;;;;;;;4.66;44.48;98703.50;5033260;28;20446;-76
2022/02/28 02:45:41;;;;;;;15.40;10.23;;;;;;;4.68;44.21;98705.09;5033427;28;20195;-76
2022/02/28 02:48:33;;;;;;;16.47;9.87;;;;;;;4.68;43.85;98707.69;5033207;28;20535;-75
2022/02/28 02:50:58;;;;;;;17.33;10.53;;;;;;;4.64;44.23;98698.41;5026251;28;20282;-75
2022/02/28 02:53:24;;;;;;;17.33;10.50;;;;;;;4.56;44.73;98703.13;5033322;28;20450;-76
2022/02/28 02:55:49;;;;;;;15.77;10.33;;;;;;;4.63;44.36;98706.25;4999812;28;20182;-74
2022/02/28 02:58:15;;;;;;;20.67;10.73;;;;;;;4.66;44.41;98701.75;5033524;28;20208;-75
2022/02/28 03:00:46;;;;;;;19.03;11.83;;;;;;;4.60;44.53;98707.25;5033683;28;20267;-74
2022/02/28 03:03:15;;;;;;;17.53;10.23;;;;;;;4.59;44.71;98711.63;5032561;28;20552;-72
2022/02/28 03:05:40;;;;;;;14.10;9.07;;;;;;;4.65;44.03;98700.09;5033150;28;20725;-76
2022/02/28 03:08:06;;;;;;;15.70;9.70;;;;;;;4.66;44.20;98696.56;5033387;28;20453;-73
2022/02/28 03:10:31;;;;;;;17.33;10.90;;;;;;;4.61;43.96;98701.97;5035597;28;20684;-72
2022/02/28 03:12:57;;;;;;;17.63;10.97;;;;;;;4.61;44.26;98708.94;5033373;28;20284;-75
2022/02/28 03:15:22;;;;;;;23.30;11.53;;;;;;;4.58;44.48;98703.88;5033047;28;20188;-71
2022/02/28 03:17:48;;;;;;;20.33;10.67;;;;;;;4.55;44.48;98704.91;5014928;28;20561;-71
2022/02/28 03:20:13;;;;;;;27.87;12.57;;;;;;;4.59;44.47;98700.38;5035127;28;20668;-73
2022/02/28 03:22:39;;;;;;;22.90;12.40;;;;;;;4.57;44.41;98702.19;5033087;28;20184;-73
2022/02/28 03:25:05;;;;;;;24.20;11.27;;;;;;;4.59;44.56;98708.16;5032675;28;20231;-75
2022/02/28 03:27:31;;;;;;;25.10;12.50;;;;;;;4.54;44.51;98698.00;5032960;28;20276;-74
2022/02/28 03:29:56;;;;;;;23.73;11.87;;;;;;;4.44;43.97;98713.22;5033081;28;20262;-74
2022/02/28 03:32:22;;;;;;;16.00;9.60;;;;;;;4.29;44.68;98714.81;5032691;28;20454;-75
2022/02/28 03:34:47;;;;;;;17.73;10.30;;;;;;;4.32;44.46;98713.00;5032915;28;20186;-74
2022/02/28 03:37:13;;;;;;;18.40;10.07;;;;;;;4.34;45.13;98714.59;5041431;28;20183;-74
2022/02/28 03:39:38;;;;;;;29.43;10.50;;;;;;;4.34;44.42;98716.34;5032776;28;20208;-75
2022/02/28 03:42:04;;;;;;;19.20;11.07;;;;;;;4.33;44.38;98710.31;5032526;28;20261;-75
2022/02/28 03:44:29;;;;;;;18.00;10.30;;;;;;;4.31;44.41;98712.13;5014696;28;20184;-75
2022/02/28 03:46:55;;;;;;;22.53;10.63;;;;;;;4.25;44.67;98713.28;5032808;28;20239;-74
2022/02/28 03:49:20;;;;;;;18.30;10.93;;;;;;;4.22;44.74;98713.44;5032213;28;20204;-74
2022/02/28 03:51:46;;;;;;;17.63;9.53;;;;;;;4.27;44.75;98708.03;5032426;28;20189;-73
2022/02/28 03:54:12;;;;;;;18.87;10.70;;;;;;;4.23;44.93;98714.28;5031917;28;20249;-75
2022/02/28 03:56:39;;;;;;;19.90;11.43;;;;;;;4.18;44.74;98705.88;5032321;28;20189;-76
2022/02/28 03:59:06;;;;;;;21.00;11.37;;;;;;;4.14;45.20;98710.38;5032201;28;20200;-75
2022/02/28 04:01:31;;;;;;;21.00;10.93;;;;;;;4.15;44.97;98702.53;5032302;28;20473;-75
2022/02/28 04:03:57;;;;;;;25.87;10.80;;;;;;;4.14;45.42;98706.03;5014223;28;20954;-75
2022/02/28 04:06:23;;;;;;;17.80;9.70;;;;;;;4.14;44.81;98700.84;5014364;28;20593;-75
2022/02/28 04:08:48;;;;;;;20.27;11.03;;;;;;;4.13;44.98;98699.16;5032586;28;20207;-75
2022/02/28 04:11:14;;;;;;;15.40;9.83;;;;;;;4.12;45.17;98701.81;5031458;28;20239;-73
2022/02/28 04:13:40;;;;;;;16.30;10.13;;;;;;;4.09;44.94;98702.00;5032259;28;20211;-74
2022/02/28 04:16:05;;;;;;;19.67;11.30;;;;;;;4.11;44.87;98698.41;5014496;28;20190;-75
2022/02/28 04:18:31;;;;;;;20.00;10.53;;;;;;;4.07;45.52;98699.44;5031727;28;20194;-75
2022/02/28 04:20:57;;;;;;;24.93;10.70;;;;;;;4.08;45.16;98698.53;5014194;28;20669;-74
2022/02/28 04:23:23;;;;;;;21.43;10.73;;;;;;;4.09;45.33;98702.81;5014279;28;20181;-74
2022/02/28 04:25:48;;;;;;;20.60;10.00;;;;;;;4.12;45.00;98700.09;5014281;28;20982;-72
2022/02/28 04:28:13;;;;;;;17.07;10.10;;;;;;;4.15;45.09;98702.53;5031775;28;20270;-74
2022/02/28 04:30:39;;;;;;;19.40;10.60;;;;;;;4.15;44.82;98702.53;5032012;28;20709;-75
2022/02/28 04:33:05;;;;;;;21.80;11.57;;;;;;;4.10;44.39;98698.47;5013638;28;20552;-74
2022/02/28 04:35:30;;;;;;;23.13;11.30;;;;;;;4.12;44.60;98691.44;5031299;28;20192;-74
2022/02/28 04:37:55;;;;;;;25.90;11.37;;;;;;;4.07;44.88;98699.44;5031207;28;20200;-74
2022/02/28 04:40:21;;;;;;;22.13;12.30;;;;;;;4.09;44.71;98689.03;5022306;28;20191;-76
2022/02/28 04:42:46;;;;;;;22.50;10.60;;;;;;;4.04;45.14;98694.41;5028582;28;20226;-74
2022/02/28 04:45:12;;;;;;;20.00;11.27;;;;;;;4.06;45.05;98699.53;5030400;28;20180;-74
2022/02/28 04:47:37;;;;;;;18.43;10.30;;;;;;;4.08;44.95;98695.94;5030718;28;20210;-74
2022/02/28 04:50:03;;;;;;;17.90;10.60;;;;;;;4.09;44.98;98702.00;5031067;28;20622;-74
2022/02/28 04:52:29;;;;;;;19.20;10.40;;;;;;;4.01;44.89;98694.56;5031907;28;20288;-74
2022/02/28 04:54:54;;;;;;;16.20;9.90;;;;;;;3.90;44.86;98691.66;5030007;28;20419;-73
2022/02/28 04:57:20;;;;;;;20.40;12.10;;;;;;;3.91;45.43;98711.47;5031162;28;20175;-73
2022/02/28 04:59:46;;;;;;;19.80;10.70;;;;;;;3.78;44.85;98709.47;5032037;28;20180;-74
2022/02/28 05:02:12;;;;;;;17.93;10.40;;;;;;;3.78;45.00;98716.41;5031657;28;20175;-74
2022/02/28 05:04:37;;;;;;;18.10;10.20;;;;;;;3.76;45.81;98711.31;5031005;28;20411;-73
2022/02/28 05:07:03;;;;;;;19.87;10.80;;;;;;;3.82;45.76;98715.38;5033241;28;20192;-72
2022/02/28 05:09:28;;;;;;;17.90;10.03;;;;;;;3.80;45.76;98720.63;5031489;28;20203;-73
2022/02/28 05:11:54;;;;;;;15.47;9.83;;;;;;;3.78;45.83;98719.00;5030794;28;20184;-72
2022/02/28 05:14:19;;;;;;;20.93;10.17;;;;;;;3.78;45.24;98717.25;5036943;28;20180;-73
2022/02/28 05:16:45;;;;;;;16.60;10.27;;;;;;;3.73;45.90;98721.84;5030897;28;20183;-72
2022/02/28 05:19:10;;;;;;;18.80;10.87;;;;;;;3.74;45.75;98720.91;5030988;28;20207;-73
2022/02/28 05:21:36;;;;;;;21.77;11.20;;;;;;;3.69;46.04;98715.94;5030688;28;20213;-73
2022/02/28 05:24:02;;;;;;;21.40;10.63;;;;;;;3.67;45.48;98722.97;5030514;28;20185;-73
2022/02/28 05:26:28;;;;;;;15.57;10.50;;;;;;;3.71;45.10;98731.44;5029758;28;20365;-73
2022/02/28 05:28:53;;;;;;;25.73;13.30;;;;;;;3.71;45.72;98738.38;5030473;28;20613;-75
2022/02/28 05:31:19;;;;;;;18.97;10.93;;;;;;;3.76;45.31;98739.00;5012189;28;20267;-75
2022/02/28 05:33:44;;;;;;;18.50;10.57;;;;;;;3.75;45.68;98737.31;5012814;28;20200;-74
2022/02/28 05:36:10;;;;;;;14.23;9.50;;;;;;;3.66;45.08;98736.84;5029920;28;20188;-74
2022/02/28 05:38:35;;;;;;;16.80;11.17;;;;;;;3.60;45.46;98739.69;5012807;28;20208;-75
2022/02/28 05:41:01;;;;;;;18.23;11.10;;;;;;;3.63;45.74;98738.72;5030011;28;20185;-74
2022/02/28 05:43:26;;;;;;;18.50;11.10;;;;;;;3.62;46.05;98739.66;5030024;28;20609;-73
2022/02/28 05:45:52;;;;;;;20.67;11.27;;;;;;;3.66;46.19;98743.75;5012048;28;20189;-73
2022/02/28 05:48:17;;;;;;;19.17;11.13;;;;;;;3.64;46.28;98733.47;5029398;28;20754;-74
2022/02/28 05:50:43;;;;;;;18.60;10.73;;;;;;;3.71;46.01;98739.22;5030485;28;20189;-74
2022/02/28 05:53:08;;;;;;;14.47;10.67;;;;;;;3.67;46.01;98740.25;5029823;28;20695;-74
2022/02/28 05:55:36;;;;;;;18.20;10.70;;;;;;;3.68;46.08;98741.94;5030273;28;20193;-75
2022/02/28 05:58:02;;;;;;;18.50;11.40;;;;;;;3.67;45.75;98743.72;5030214;28;20204;-73
2022/02/28 06:00:28;;;;;;;21.90;12.40;;;;;;;3.65;45.89;98757.66;5012292;28;20802;-74
2022/02/28 06:02:53;;;;;;;23.97;13.83;;;;;;;3.68;45.73;98752.31;5029734;28;20423;-73
2022/02/28 06:05:19;;;;;;;20.93;12.37;;;;;;;3.64;45.56;98758.56;5011681;28;20287;-74
2022/02/28 06:07:45;;;;;;;21.43;12.30;;;;;;;3.65;45.95;98753.31;5029725;28;20249;-73
2022/02/28 06:10:10;;;;;;;23.57;12.60;;;;;;;3.61;45.97;98754.34;5029246;28;20258;-74
2022/02/28 06:12:36;;;;;;;16.70;11.20;;;;;;;3.60;46.06;98750.06;5029641;28;20204;-74
2022/02/28 06:15:01;;;;;;;27.27;15.30;;;;;;;3.60;46.03;98757.03;5029887;28;20184;-74
2022/02/28 06:17:27;;;;;;;29.80;17.10;;;;;;;3.58;46.13;98753.66;5029525;28;20200;-73
2022/02/28 06:19:52;;;;;;;34.23;19.90;;;;;;;3.57;46.08;98751.97;5030021;28;20191;-72
2022/02/28 06:22:17;;;;;;;36.93;20.13;;;;;;;3.51;46.27;98756.53;5029762;28;20183;-72
2022/02/28 06:24:43;;;;;;;29.10;18.43;;;;;;;3.53;46.30;98761.66;5029190;28;20834;-74
2022/02/28 06:27:08;;;;;;;28.47;17.30;;;;;;;3.53;46.04;98759.88;5029444;28;20188;-73
2022/02/28 06:29:34;;;;;;;31.20;16.40;;;;;;;3.54;45.97;98766.75;5030022;28;20216;-72
2022/02/28 06:31:59;;;;;;;46.57;21.23;;;;;;;3.51;46.17;98766.91;5029911;28;20188;-73
2022/02/28 06:34:26;;;;;;;49.07;21.77;;;;;;;3.50;46.28;98761.78;5029804;28;20230;-73
2022/02/28 06:36:52;;;;;;;52.57;23.23;;;;;;;3.57;46.50;98765.78;5029440;28;20204;-71
2022/02/28 06:39:17;;;;;;;51.17;22.30;;;;;;;3.69;46.09;98772.16;5029609;28;20679;-71
2022/02/28 06:41:43;;;;;;;29.50;15.20;;;;;;;3.81;45.38;98761.22;5025744;28;20188;-74
2022/02/28 06:44:08;;;;;;;31.30;18.00;;;;;;;4.04;45.67;98766.22;5029589;28;20204;-74
2022/02/28 06:46:34;;;;;;;46.77;19.00;;;;;;;4.24;44.80;98763.50;5029448;28;20187;-71
2022/02/28 06:48:59;;;;;;;38.80;17.63;;;;;;;4.41;45.43;98762.69;5012018;28;20318;-73
2022/02/28 06:51:25;;;;;;;48.40;17.90;;;;;;;4.58;44.87;98766.22;5009858;28;20661;-72
2022/02/28 06:53:50;;;;;;;22.57;13.87;;;;;;;4.72;44.58;98763.78;5033809;28;20211;-71
2022/02/28 06:56:16;;;;;;;39.37;18.27;;;;;;;4.97;44.17;98766.91;5032847;28;20210;-71
2022/02/28 06:58:42;;;;;;;37.07;18.27;;;;;;;5.07;44.43;98761.13;5033463;28;20815;-74
2022/02/28 07:01:09;;;;;;;36.23;18.47;;;;;;;5.26;44.62;98767.97;5033070;28;20235;-74
2022/02/28 07:03:35;;;;;;;30.83;17.40;;;;;;;5.32;44.26;98767.66;5033510;28;20914;-74
2022/02/28 07:06:00;;;;;;;39.57;17.60;;;;;;;5.33;45.01;98763.31;5033678;28;20466;-75
2022/02/28 07:08:27;;;;;;;24.07;15.00;;;;;;;5.26;44.53;98767.13;4999369;28;20211;-76
2022/02/28 07:10:53;;;;;;;27.00;14.00;;;;;;;5.19;45.25;98766.59;5034556;28;20209;-73
2022/02/28 07:13:19;;;;;;;23.13;14.00;;;;;;;5.39;44.61;98768.16;5035185;28;20462;-74
2022/02/28 07:15:46;;;;;;;24.50;14.53;;;;;;;5.43;44.98;98767.09;5032524;28;20433;-73
2022/02/28 07:18:12;;;;;;;21.10;13.73;;;;;;;5.52;44.70;98766.59;5032367;28;21028;-73
2022/02/28 07:20:37;;;;;;;22.20;13.07;;;;;;;5.54;44.39;98772.56;5030343;28;20442;-75
2022/02/28 07:23:04;;;;;;;25.17;14.73;;;;;;;5.54;44.42;98769.13;5029606;28;20770;-75
2022/02/28 07:25:30;;;;;;;23.00;14.23;;;;;;;5.47;44.78;98775.56;5015188;28;20590;-75
2022/02/28 07:27:55;;;;;;;25.63;14.90;;;;;;;5.14;45.62;98772.06;5033337;28;20535;-76
2022/02/28 07:30:21;;;;;;;34.37;14.90;;;;;;;5.24;45.59;98769.81;5032514;28;20429;-76
2022/02/28 07:32:46;;;;;;;25.43;14.53;;;;;;;5.31;45.33;98772.94;5033135;28;20801;-74
2022/02/28 07:35:12;;;;;;;26.90;14.53;;;;;;;5.44;45.05;98765.31;5032657;28;20188;-75
2022/02/28 07:37:37;;;;;;;27.67;15.50;;;;;;;5.34;45.25;98776.22;5032815;28;20272;-74
2022/02/28 07:40:04;;;;;;;20.27;14.10;;;;;;;5.35;45.99;98777.88;5015443;28;20275;-74
2022/02/28 07:42:29;;;;;;;23.27;15.20;;;;;;;5.58;45.58;98777.59;5033253;28;20187;-73
2022/02/28 07:44:55;;;;;;;26.50;15.90;;;;;;;5.74;45.24;98777.59;5033062;28;20425;-72
2022/02/28 07:47:20;;;;;;;23.43;14.90;;;;;;;5.76;44.51;98786.19;5033166;28;20195;-72
2022/02/28 07:49:46;;;;;;;27.63;15.33;;;;;;;5.78;45.46;98784.34;5032663;28;20667;-73
2022/02/28 07:52:11;;;;;;;35.77;16.30;;;;;;;5.57;45.90;98779.34;5031982;28;20339;-72
2022/02/28 07:54:37;;;;;;;26.20;15.70;;;;;;;5.78;46.29;98781.72;5026439;28;20199;-73
2022/02/28 07:57:02;;;;;;;28.63;14.70;;;;;;;5.67;45.91;98784.91;5033207;28;20182;-72
2022/02/28 07:59:28;;;;;;;27.67;15.10;;;;;;;5.79;46.46;98778.22;5032227;28;20202;-72
2022/02/28 08:01:53;;;;;;;25.27;13.90;;;;;;;5.86;45.57;98779.53;5033016;28;20211;-73
2022/02/28 08:04:19;;;;;;;25.10;15.03;;;;;;;5.94;44.42;98779.94;5031820;28;20184;-72
2022/02/28 08:06:44;;;;;;;24.67;14.80;;;;;;;6.12;44.37;98782.50;5014364;28;20223;-73
2022/02/28 08:09:10;;;;;;;23.23;13.90;;;;;;;6.21;43.71;98786.38;5032221;28;20632;-73
2022/02/28 08:11:35;;;;;;;23.53;14.17;;;;;;;6.28;43.00;98779.88;5034962;28;20235;-72
2022/02/28 08:14:02;;;;;;;24.50;15.40;;;;;;;6.54;42.27;98778.41;5035009;28;20614;-73
2022/02/28 08:16:27;;;;;;;20.20;13.23;;;;;;;6.73;41.69;98782.53;5035282;28;20213;-73
2022/02/28 08:18:52;;;;;;;22.23;13.00;;;;;;;6.93;40.81;98790.97;5017226;28;20449;-72
2022/02/28 08:21:18;;;;;;;19.80;13.20;;;;;;;7.19;40.57;98786.81;5034850;28;20184;-72
2022/02/28 08:23:43;;;;;;;17.43;12.33;;;;;;;7.46;39.63;98784.28;5035923;28;20185;-72
2022/02/28 08:26:09;;;;;;;21.40;13.90;;;;;;;7.73;39.03;98791.34;5034821;28;20189;-73
2022/02/28 08:28:35;;;;;;;23.07;14.00;;;;;;;8.00;38.15;98788.75;5035999;28;20646;-72
2022/02/28 08:31:01;;;;;;;32.33;14.93;;;;;;;8.39;37.85;98798.53;5032238;28;20578;-71
2022/02/28 08:33:26;;;;;;;18.20;12.77;;;;;;;8.60;36.93;98802.41;5031767;28;20214;-73
2022/02/28 08:35:51;;;;;;;16.53;12.23;;;;;;;8.88;36.22;98797.94;5032473;28;20658;-73
2022/02/28 08:38:17;;;;;;;18.70;12.50;;;;;;;9.10;35.55;98798.28;5032526;28;20347;-73
2022/02/28 08:40:44;;;;;;;19.77;13.00;;;;;;;9.41;35.24;98804.03;5032201;28;20323;-73
2022/02/28 08:43:10;;;;;;;19.63;13.30;;;;;;;9.73;35.58;98812.28;5031323;28;20833;-74
2022/02/28 08:45:36;;;;;;;18.10;12.90;;;;;;;10.09;34.26;98815.84;5030783;28;20521;-74
2022/02/28 08:48:02;;;;;;;17.40;12.60;;;;;;;10.42;33.61;98814.38;5030672;28;20449;-73
2022/02/28 08:50:27;;;;;;;19.23;12.70;;;;;;;10.73;33.42;98803.41;5030855;28;20284;-73
2022/02/28 08:52:53;;;;;;;20.40;12.40;;;;;;;10.95;32.64;98800.03;5013956;28;20995;-74
2022/02/28 08:55:18;;;;;;;25.70;13.20;;;;;;;11.18;31.99;98798.31;5013336;28;20192;-74
2022/02/28 08:57:44;;;;;;;18.27;13.00;;;;;;;11.41;31.53;98800.09;5031415;28;20207;-74
2022/02/28 09:00:10;;;;;;;17.73;13.20;;;;;;;11.53;31.24;98796.50;5031186;28;20213;-74
2022/02/28 09:02:37;;;;;;;15.70;11.77;;;;;;;11.92;31.80;98802.22;5012905;28;20180;-73
2022/02/28 09:05:02;;;;;;;14.83;12.00;;;;;;;12.31;30.96;98795.69;5031228;28;20426;-73
2022/02/28 09:07:28;;;;;;;22.10;15.93;;;;;;;12.26;29.94;98793.44;4997037;28;20427;-74
2022/02/28 09:09:53;;;;;;;17.67;12.57;;;;;;;12.47;29.57;98797.94;5031158;28;20196;-75
2022/02/28 09:12:19;;;;;;;22.77;12.03;;;;;;;12.63;29.59;98789.63;5030892;28;20657;-75
2022/02/28 09:14:44;;;;;;;15.80;10.93;;;;;;;12.73;28.64;98791.34;5037114;28;20184;-74
2022/02/28 09:17:09;;;;;;;20.67;11.80;;;;;;;12.93;28.32;98791.50;4997293;28;20656;-76
2022/02/28 09:19:35;;;;;;;19.07;13.17;;;;;;;13.02;28.26;98789.91;5031026;28;20270;-74
2022/02/28 09:22:00;;;;;;;12.00;9.73;;;;;;;13.10;27.42;98786.63;5030453;28;20230;-73
2022/02/28 09:24:28;;;;;;;19.00;11.27;;;;;;;13.17;27.34;98787.75;5031006;28;20614;-76
2022/02/28 09:26:55;;;;;;;15.20;10.37;;;;;;;13.31;27.45;98790.06;5013804;28;20180;-72
2022/02/28 09:29:21;;;;;;;15.83;10.60;;;;;;;13.34;27.06;98795.06;5031099;28;20446;-72
2022/02/28 09:31:46;;;;;;;17.40;11.43;;;;;;;13.27;27.40;98787.81;5031038;28;20433;-74
2022/02/28 09:34:12;;;;;;;15.80;11.10;;;;;;;13.67;27.74;98787.88;5031057;28;20211;-73
2022/02/28 09:36:37;;;;;;;15.03;10.00;;;;;;;13.81;27.23;98781.38;5030790;28;20195;-73
2022/02/28 09:39:03;;;;;;;18.73;10.40;;;;;;;14.08;26.62;98779.91;5030526;28;20293;-75
2022/02/28 09:41:28;;;;;;;15.67;9.60;;;;;;;13.89;26.60;98778.06;5030522;28;20853;-73
2022/02/28 09:43:54;;;;;;;14.53;9.50;;;;;;;13.95;26.68;98769.66;5030879;28;20271;-74
2022/02/28 09:46:20;;;;;;;15.33;10.67;;;;;;;14.25;26.43;98759.94;5030396;28;20205;-74
2022/02/28 09:48:46;;;;;;;11.97;8.90;;;;;;;14.04;25.85;98775.06;5030946;28;20533;-73
2022/02/28 09:51:11;;;;;;;11.30;9.13;;;;;;;14.35;26.24;98775.78;5030272;28;20183;-74
2022/02/28 09:53:37;;;;;;;15.13;9.40;;;;;;;14.61;26.00;98777.88;5012982;28;20491;-74
2022/02/28 09:56:02;;;;;;;13.07;8.73;;;;;;;14.49;25.29;98779.81;5029651;28;20187;-74
2022/02/28 09:58:29;;;;;;;12.97;8.57;;;;;;;14.17;25.29;98780.09;5012753;28;20221;-73
2022/02/28 10:00:56;;;;;;;16.00;12.90;;;;;;;14.16;25.45;98789.78;5031045;28;20183;-74
2022/02/28 10:03:23;;;;;;;13.50;8.80;;;;;;;14.39;25.46;98787.75;5030294;28;20445;-73
2022/02/28 10:05:48;;;;;;;12.63;9.17;;;;;;;14.68;25.50;98794.00;5012734;28;20437;-72
2022/02/28 10:08:14;;;;;;;12.43;9.80;;;;;;;14.32;25.47;98796.34;5030321;28;20533;-73
2022/02/28 10:10:40;;;;;;;13.50;9.53;;;;;;;14.40;25.57;98796.47;5030738;28;20725;-74
2022/02/28 10:13:05;;;;;;;14.03;9.57;;;;;;;14.67;25.47;98802.88;5030547;28;20216;-75
2022/02/28 10:15:31;;;;;;;11.27;9.70;;;;;;;15.02;25.26;98789.13;5029483;28;20187;-73
2022/02/28 10:18:03;;;;;;;13.83;11.00;;;;;;;15.43;24.85;98788.84;5013699;28;20295;-74
2022/02/28 10:20:30;;;;;;;14.37;9.80;;;;;;;15.39;23.66;98790.13;5013574;28;20442;-74
2022/02/28 10:23:04;;;;;;;17.17;11.10;;;;;;;14.92;24.19;98787.47;5031818;28;20422;-74
2022/02/28 10:25:34;;;;;;;14.57;9.87;;;;;;;15.00;24.24;98798.13;5013863;28;21128;-73
2022/02/28 10:28:09;;;;;;;12.70;9.00;;;;;;;14.95;23.80;98787.19;5034327;28;20446;-71
2022/02/28 10:30:35;;;;;;;15.63;10.40;;;;;;;15.17;24.14;98786.84;5010343;28;20430;-73
2022/02/28 10:33:11;;;;;;;16.60;10.30;;;;;;;14.95;24.35;98782.72;5034954;28;20462;-73
2022/02/28 10:36:00;;;;;;;13.17;9.70;;;;;;;15.42;24.64;98789.81;5026586;28;20190;-73
2022/02/28 10:38:28;;;;;;;13.10;9.90;;;;;;;15.34;23.55;98790.53;5034901;28;20488;-73
2022/02/28 10:40:54;;;;;;;13.70;10.17;;;;;;;15.11;23.58;98784.78;5035339;28;20426;-73
2022/02/28 10:43:27;;;;;;;12.00;9.67;;;;;;;15.32;23.48;98779.28;5033424;28;20436;-73
2022/02/28 10:45:54;;;;;;;16.73;10.97;;;;;;;14.98;23.34;98786.91;5029933;28;20422;-73
2022/02/28 10:48:21;;;;;;;16.57;11.70;;;;;;;14.97;23.61;98774.69;5033947;28;20522;-73
2022/02/28 10:50:46;;;;;;;14.20;11.47;;;;;;;15.67;24.86;98779.56;5034368;28;20460;-73
2022/02/28 10:53:20;;;;;;;15.93;10.70;;;;;;;15.65;23.44;98773.59;5016270;28;20540;-73
2022/02/28 10:55:48;;;;;;;14.40;10.60;;;;;;;15.97;22.91;98775.00;5033614;28;20190;-73
2022/02/28 10:58:21;;;;;;;16.43;10.43;;;;;;;16.19;23.15;98764.97;5032786;28;20449;-73
2022/02/28 11:00:53;;;;;;;14.97;11.13;;;;;;;16.49;23.18;98766.41;5019191;28;20428;-73
2022/02/28 11:03:19;;;;;;;16.50;9.97;;;;;;;16.62;22.96;98763.38;5033433;28;20423;-75
2022/02/28 11:05:58;;;;;;;15.00;11.17;;;;;;;16.52;22.26;98763.47;5035111;28;20952;-73
2022/02/28 11:08:26;;;;;;;14.00;11.30;;;;;;;16.06;22.75;98773.28;5015302;28;20583;-73
2022/02/28 11:10:53;;;;;;;15.07;11.27;;;;;;;15.81;22.91;98759.75;5032799;28;20441;-73
2022/02/28 11:13:21;;;;;;;13.63;10.50;;;;;;;16.11;22.96;98765.72;5015368;28;20520;-75
2022/02/28 11:15:46;;;;;;;16.50;11.33;;;;;;;16.55;22.62;98757.88;5009543;28;20524;-73
2022/02/28 11:18:20;;;;;;;17.87;12.40;;;;;;;16.43;23.03;98757.25;5033159;28;20545;-73